sensor_id;sensor_type;location;lat;lon;timestamp;P1;durP1;ratioP1;P2;durP2;ratioP2
16640;SDS011;8434;47.990;7.880;2023-04-15T00:00:57;3.67;;;1.80;;
16640;SDS011;8434;47.990;7.880;2023-04-15T00:03:44;3.17;;;1.80;;
16640;SDS011;8434;47.990;7.880;2023-04-15T00:06:30;2.07;;;1.27;;
16640;SDS011;8434;47.990;7.880;2023-04-15T00:09:15;2.77;;;1.50;;
16640;SDS011;8434;47.990;7.880;2023-04-15T00:12:01;3.03;;;1.23;;
16640;SDS011;8434;47.990;7.880;2023-04-15T00:14:46;1.70;;;1.53;;
16640;SDS011;8434;47.990;7.880;2023-04-15T00:17:32;3.73;;;1.40;;
16640;SDS011;8434;47.990;7.880;2023-04-15T00:20:19;1.77;;;1.40;;
16640;SDS011;8434;47.990;7.880;2023-04-15T00:23:05;2.17;;;1.63;;
16640;SDS011;8434;47.990;7.880;2023-04-15T00:25:51;3.23;;;1.47;;
16640;SDS011;8434;47.990;7.880;2023-04-15T00:28:36;2.27;;;1.27;;
16640;SDS011;8434;47.990;7.880;2023-04-15T00:31:22;3.00;;;1.37;;
16640;SDS011;8434;47.990;7.880;2023-04-15T00:34:08;2.83;;;1.20;;
16640;SDS011;8434;47.990;7.880;2023-04-15T00:36:55;2.80;;;1.43;;
16640;SDS011;8434;47.990;7.880;2023-04-15T00:39:40;2.20;;;1.30;;
16640;SDS011;8434;47.990;7.880;2023-04-15T00:42:25;3.10;;;1.40;;
16640;SDS011;8434;47.990;7.880;2023-04-15T00:45:11;4.43;;;1.60;;
16640;SDS011;8434;47.990;7.880;2023-04-15T00:47:56;3.67;;;1.50;;
16640;SDS011;8434;47.990;7.880;2023-04-15T00:50:42;1.90;;;1.27;;
16640;SDS011;8434;47.990;7.880;2023-04-15T00:53:29;3.03;;;1.40;;
16640;SDS011;8434;47.990;7.880;2023-04-15T00:56:14;2.90;;;1.40;;
16640;SDS011;8434;47.990;7.880;2023-04-15T00:59:00;4.37;;;1.50;;
16640;SDS011;8434;47.990;7.880;2023-04-15T01:01:45;3.17;;;1.60;;
16640;SDS011;8434;47.990;7.880;2023-04-15T01:04:31;2.43;;;1.30;;
16640;SDS011;8434;47.990;7.880;2023-04-15T01:07:17;2.10;;;1.23;;
16640;SDS011;8434;47.990;7.880;2023-04-15T01:10:04;2.57;;;1.30;;
16640;SDS011;8434;47.990;7.880;2023-04-15T01:12:50;2.27;;;1.40;;
16640;SDS011;8434;47.990;7.880;2023-04-15T01:15:36;4.80;;;2.30;;
16640;SDS011;8434;47.990;7.880;2023-04-15T01:18:21;2.23;;;1.20;;
16640;SDS011;8434;47.990;7.880;2023-04-15T01:21:07;4.70;;;1.50;;
16640;SDS011;8434;47.990;7.880;2023-04-15T01:23:53;2.83;;;1.47;;
16640;SDS011;8434;47.990;7.880;2023-04-15T01:26:41;2.70;;;1.57;;
16640;SDS011;8434;47.990;7.880;2023-04-15T01:29:27;3.00;;;1.40;;
16640;SDS011;8434;47.990;7.880;2023-04-15T01:32:12;2.83;;;1.50;;
16640;SDS011;8434;47.990;7.880;2023-04-15T01:35:16;2.33;;;1.30;;
16640;SDS011;8434;47.990;7.880;2023-04-15T01:38:07;1.10;;;1.00;;
16640;SDS011;8434;47.990;7.880;2023-04-15T01:40:52;5.30;;;1.40;;
16640;SDS011;8434;47.990;7.880;2023-04-15T01:43:40;3.03;;;1.50;;
16640;SDS011;8434;47.990;7.880;2023-04-15T01:46:28;6.07;;;1.73;;
16640;SDS011;8434;47.990;7.880;2023-04-15T01:49:14;2.33;;;1.30;;
16640;SDS011;8434;47.990;7.880;2023-04-15T01:52:01;1.97;;;1.00;;
16640;SDS011;8434;47.990;7.880;2023-04-15T01:54:47;1.63;;;1.13;;
16640;SDS011;8434;47.990;7.880;2023-04-15T01:57:34;4.23;;;1.83;;
16640;SDS011;8434;47.990;7.880;2023-04-15T02:00:22;4.03;;;1.90;;
16640;SDS011;8434;47.990;7.880;2023-04-15T02:03:10;3.37;;;1.30;;
16640;SDS011;8434;47.990;7.880;2023-04-15T02:05:57;3.60;;;1.30;;
16640;SDS011;8434;47.990;7.880;2023-04-15T02:08:43;3.07;;;1.30;;
16640;SDS011;8434;47.990;7.880;2023-04-15T02:11:30;2.57;;;1.30;;
16640;SDS011;8434;47.990;7.880;2023-04-15T02:14:17;3.27;;;1.30;;
16640;SDS011;8434;47.990;7.880;2023-04-15T02:17:05;2.03;;;1.53;;
16640;SDS011;8434;47.990;7.880;2023-04-15T02:19:53;4.70;;;1.37;;
16640;SDS011;8434;47.990;7.880;2023-04-15T02:22:41;2.67;;;1.20;;
16640;SDS011;8434;47.990;7.880;2023-04-15T02:25:27;3.80;;;1.20;;
16640;SDS011;8434;47.990;7.880;2023-04-15T02:28:15;1.83;;;1.00;;
16640;SDS011;8434;47.990;7.880;2023-04-15T02:31:04;4.00;;;1.37;;
16640;SDS011;8434;47.990;7.880;2023-04-15T02:33:52;3.70;;;1.20;;
16640;SDS011;8434;47.990;7.880;2023-04-15T02:36:38;2.40;;;0.90;;
16640;SDS011;8434;47.990;7.880;2023-04-15T02:39:25;2.60;;;1.40;;
16640;SDS011;8434;47.990;7.880;2023-04-15T02:42:13;1.63;;;1.03;;
16640;SDS011;8434;47.990;7.880;2023-04-15T02:44:59;3.30;;;0.97;;
16640;SDS011;8434;47.990;7.880;2023-04-15T02:47:49;2.30;;;1.30;;
16640;SDS011;8434;47.990;7.880;2023-04-15T02:50:37;1.70;;;1.30;;
16640;SDS011;8434;47.990;7.880;2023-04-15T02:53:25;5.80;;;1.40;;
16640;SDS011;8434;47.990;7.880;2023-04-15T02:56:11;2.27;;;1.30;;
16640;SDS011;8434;47.990;7.880;2023-04-15T02:58:59;4.77;;;1.97;;
16640;SDS011;8434;47.990;7.880;2023-04-15T03:01:46;1.93;;;1.00;;
16640;SDS011;8434;47.990;7.880;2023-04-15T03:04:32;3.63;;;1.20;;
16640;SDS011;8434;47.990;7.880;2023-04-15T03:07:20;2.40;;;1.30;;
16640;SDS011;8434;47.990;7.880;2023-04-15T03:10:08;2.07;;;1.50;;
16640;SDS011;8434;47.990;7.880;2023-04-15T03:12:54;2.40;;;1.20;;
16640;SDS011;8434;47.990;7.880;2023-04-15T03:15:42;3.53;;;1.80;;
16640;SDS011;8434;47.990;7.880;2023-04-15T03:18:29;3.47;;;1.83;;
16640;SDS011;8434;47.990;7.880;2023-04-15T03:21:20;4.60;;;2.17;;
16640;SDS011;8434;47.990;7.880;2023-04-15T03:24:08;2.80;;;1.73;;
16640;SDS011;8434;47.990;7.880;2023-04-15T03:26:55;3.53;;;2.20;;
16640;SDS011;8434;47.990;7.880;2023-04-15T03:29:43;4.87;;;1.93;;
16640;SDS011;8434;47.990;7.880;2023-04-15T03:32:29;2.80;;;1.73;;
16640;SDS011;8434;47.990;7.880;2023-04-15T03:35:17;3.83;;;1.73;;
16640;SDS011;8434;47.990;7.880;2023-04-15T03:38:03;2.90;;;1.60;;
16640;SDS011;8434;47.990;7.880;2023-04-15T03:40:52;5.23;;;2.17;;
16640;SDS011;8434;47.990;7.880;2023-04-15T03:43:38;3.30;;;2.10;;
16640;SDS011;8434;47.990;7.880;2023-04-15T03:46:25;4.70;;;2.10;;
16640;SDS011;8434;47.990;7.880;2023-04-15T03:49:12;4.13;;;1.90;;
16640;SDS011;8434;47.990;7.880;2023-04-15T03:51:59;3.47;;;1.90;;
16640;SDS011;8434;47.990;7.880;2023-04-15T03:54:45;2.40;;;1.67;;
16640;SDS011;8434;47.990;7.880;2023-04-15T03:57:33;2.53;;;1.47;;
16640;SDS011;8434;47.990;7.880;2023-04-15T04:00:22;3.30;;;1.60;;
16640;SDS011;8434;47.990;7.880;2023-04-15T04:03:08;3.43;;;1.43;;
16640;SDS011;8434;47.990;7.880;2023-04-15T04:05:56;3.40;;;1.33;;
16640;SDS011;8434;47.990;7.880;2023-04-15T04:08:42;3.37;;;1.70;;
16640;SDS011;8434;47.990;7.880;2023-04-15T04:11:28;1.77;;;1.30;;
16640;SDS011;8434;47.990;7.880;2023-04-15T04:14:17;3.43;;;1.30;;
16640;SDS011;8434;47.990;7.880;2023-04-15T04:17:03;2.73;;;1.20;;
16640;SDS011;8434;47.990;7.880;2023-04-15T04:19:50;2.07;;;1.13;;
16640;SDS011;8434;47.990;7.880;2023-04-15T04:22:36;4.23;;;1.27;;
16640;SDS011;8434;47.990;7.880;2023-04-15T04:25:23;2.70;;;1.43;;
16640;SDS011;8434;47.990;7.880;2023-04-15T04:28:10;2.10;;;1.13;;
16640;SDS011;8434;47.990;7.880;2023-04-15T04:30:58;1.43;;;1.33;;
16640;SDS011;8434;47.990;7.880;2023-04-15T04:33:45;1.73;;;1.40;;
16640;SDS011;8434;47.990;7.880;2023-04-15T04:36:31;2.80;;;1.07;;
16640;SDS011;8434;47.990;7.880;2023-04-15T04:39:18;3.97;;;1.10;;
16640;SDS011;8434;47.990;7.880;2023-04-15T04:42:04;2.37;;;1.43;;
16640;SDS011;8434;47.990;7.880;2023-04-15T04:44:51;2.60;;;1.13;;
16640;SDS011;8434;47.990;7.880;2023-04-15T04:47:39;2.37;;;1.17;;
16640;SDS011;8434;47.990;7.880;2023-04-15T04:50:25;2.97;;;1.20;;
16640;SDS011;8434;47.990;7.880;2023-04-15T04:53:12;3.93;;;1.20;;
16640;SDS011;8434;47.990;7.880;2023-04-15T04:55:58;3.53;;;1.63;;
16640;SDS011;8434;47.990;7.880;2023-04-15T04:58:46;1.77;;;1.13;;
16640;SDS011;8434;47.990;7.880;2023-04-15T05:01:32;3.17;;;1.10;;
16640;SDS011;8434;47.990;7.880;2023-04-15T05:04:20;3.57;;;1.50;;
16640;SDS011;8434;47.990;7.880;2023-04-15T05:07:06;2.93;;;1.40;;
16640;SDS011;8434;47.990;7.880;2023-04-15T05:09:53;4.33;;;1.60;;
16640;SDS011;8434;47.990;7.880;2023-04-15T05:12:40;2.10;;;1.30;;
16640;SDS011;8434;47.990;7.880;2023-04-15T05:15:27;2.80;;;1.43;;
16640;SDS011;8434;47.990;7.880;2023-04-15T05:18:13;3.03;;;1.13;;
16640;SDS011;8434;47.990;7.880;2023-04-15T05:21:01;2.80;;;1.50;;
16640;SDS011;8434;47.990;7.880;2023-04-15T05:23:48;2.23;;;1.30;;
16640;SDS011;8434;47.990;7.880;2023-04-15T05:26:37;3.93;;;1.60;;
16640;SDS011;8434;47.990;7.880;2023-04-15T05:29:24;4.93;;;1.67;;
16640;SDS011;8434;47.990;7.880;2023-04-15T05:32:10;2.10;;;1.33;;
16640;SDS011;8434;47.990;7.880;2023-04-15T05:34:57;4.57;;;1.60;;
16640;SDS011;8434;47.990;7.880;2023-04-15T05:37:45;5.37;;;1.77;;
16640;SDS011;8434;47.990;7.880;2023-04-15T05:40:31;3.43;;;1.37;;
16640;SDS011;8434;47.990;7.880;2023-04-15T05:43:18;1.97;;;1.27;;
16640;SDS011;8434;47.990;7.880;2023-04-15T05:46:04;2.80;;;1.40;;
16640;SDS011;8434;47.990;7.880;2023-04-15T05:48:53;2.73;;;1.50;;
16640;SDS011;8434;47.990;7.880;2023-04-15T05:51:39;7.17;;;2.23;;
16640;SDS011;8434;47.990;7.880;2023-04-15T05:54:27;4.13;;;1.77;;
16640;SDS011;8434;47.990;7.880;2023-04-15T05:57:14;2.73;;;1.47;;
16640;SDS011;8434;47.990;7.880;2023-04-15T06:00:00;2.00;;;1.20;;
16640;SDS011;8434;47.990;7.880;2023-04-15T06:02:55;4.97;;;1.60;;
16640;SDS011;8434;47.990;7.880;2023-04-15T06:05:41;1.97;;;1.53;;
16640;SDS011;8434;47.990;7.880;2023-04-15T06:08:29;5.20;;;1.90;;
16640;SDS011;8434;47.990;7.880;2023-04-15T06:11:17;2.63;;;1.70;;
16640;SDS011;8434;47.990;7.880;2023-04-15T06:14:04;2.50;;;1.50;;
16640;SDS011;8434;47.990;7.880;2023-04-15T06:16:50;1.70;;;1.20;;
16640;SDS011;8434;47.990;7.880;2023-04-15T06:19:37;1.87;;;1.63;;
16640;SDS011;8434;47.990;7.880;2023-04-15T06:22:24;4.13;;;1.83;;
16640;SDS011;8434;47.990;7.880;2023-04-15T06:25:11;1.50;;;1.33;;
16640;SDS011;8434;47.990;7.880;2023-04-15T06:27:59;3.00;;;1.50;;
16640;SDS011;8434;47.990;7.880;2023-04-15T06:30:46;2.70;;;1.50;;
16640;SDS011;8434;47.990;7.880;2023-04-15T06:33:32;4.77;;;1.60;;
16640;SDS011;8434;47.990;7.880;2023-04-15T06:36:19;2.47;;;1.57;;
16640;SDS011;8434;47.990;7.880;2023-04-15T06:39:05;5.13;;;1.87;;
16640;SDS011;8434;47.990;7.880;2023-04-15T06:41:53;3.37;;;1.63;;
16640;SDS011;8434;47.990;7.880;2023-04-15T06:44:42;2.63;;;1.73;;
16640;SDS011;8434;47.990;7.880;2023-04-15T06:47:29;2.50;;;1.70;;
16640;SDS011;8434;47.990;7.880;2023-04-15T06:50:16;1.50;;;1.23;;
16640;SDS011;8434;47.990;7.880;2023-04-15T06:53:02;1.87;;;1.50;;
16640;SDS011;8434;47.990;7.880;2023-04-15T06:55:49;3.87;;;1.67;;
16640;SDS011;8434;47.990;7.880;2023-04-15T06:58:35;3.70;;;1.80;;
16640;SDS011;8434;47.990;7.880;2023-04-15T07:01:24;3.90;;;1.93;;
16640;SDS011;8434;47.990;7.880;2023-04-15T07:04:10;3.93;;;1.60;;
16640;SDS011;8434;47.990;7.880;2023-04-15T07:06:57;1.60;;;1.27;;
16640;SDS011;8434;47.990;7.880;2023-04-15T07:09:45;1.53;;;1.30;;
16640;SDS011;8434;47.990;7.880;2023-04-15T07:12:32;2.50;;;1.50;;
16640;SDS011;8434;47.990;7.880;2023-04-15T07:15:20;4.07;;;1.60;;
16640;SDS011;8434;47.990;7.880;2023-04-15T07:18:07;3.57;;;1.60;;
16640;SDS011;8434;47.990;7.880;2023-04-15T07:20:54;3.03;;;1.40;;
16640;SDS011;8434;47.990;7.880;2023-04-15T07:23:41;1.83;;;1.47;;
16640;SDS011;8434;47.990;7.880;2023-04-15T07:26:28;2.70;;;1.60;;
16640;SDS011;8434;47.990;7.880;2023-04-15T07:29:15;5.17;;;1.60;;
16640;SDS011;8434;47.990;7.880;2023-04-15T07:32:01;4.40;;;1.40;;
16640;SDS011;8434;47.990;7.880;2023-04-15T07:34:53;3.47;;;1.67;;
16640;SDS011;8434;47.990;7.880;2023-04-15T07:37:39;2.17;;;1.93;;
16640;SDS011;8434;47.990;7.880;2023-04-15T07:40:27;2.53;;;1.63;;
16640;SDS011;8434;47.990;7.880;2023-04-15T07:43:13;1.83;;;1.37;;
16640;SDS011;8434;47.990;7.880;2023-04-15T07:46:00;5.37;;;1.67;;
16640;SDS011;8434;47.990;7.880;2023-04-15T07:48:47;2.57;;;1.23;;
16640;SDS011;8434;47.990;7.880;2023-04-15T07:51:35;2.53;;;1.60;;
16640;SDS011;8434;47.990;7.880;2023-04-15T07:54:21;2.40;;;1.33;;
16640;SDS011;8434;47.990;7.880;2023-04-15T07:57:08;3.00;;;1.67;;
16640;SDS011;8434;47.990;7.880;2023-04-15T07:59:54;3.23;;;1.97;;
16640;SDS011;8434;47.990;7.880;2023-04-15T08:02:41;2.70;;;1.37;;
16640;SDS011;8434;47.990;7.880;2023-04-15T08:05:28;1.43;;;1.13;;
16640;SDS011;8434;47.990;7.880;2023-04-15T08:08:15;2.83;;;1.30;;
16640;SDS011;8434;47.990;7.880;2023-04-15T08:11:02;1.97;;;1.60;;
16640;SDS011;8434;47.990;7.880;2023-04-15T08:13:48;3.37;;;1.40;;
16640;SDS011;8434;47.990;7.880;2023-04-15T08:16:35;1.10;;;1.00;;
16640;SDS011;8434;47.990;7.880;2023-04-15T08:19:22;2.00;;;1.00;;
16640;SDS011;8434;47.990;7.880;2023-04-15T08:22:09;3.20;;;1.30;;
16640;SDS011;8434;47.990;7.880;2023-04-15T08:24:57;1.60;;;1.20;;
16640;SDS011;8434;47.990;7.880;2023-04-15T08:27:44;3.13;;;1.60;;
16640;SDS011;8434;47.990;7.880;2023-04-15T08:30:30;3.37;;;1.50;;
16640;SDS011;8434;47.990;7.880;2023-04-15T08:33:17;1.60;;;1.27;;
16640;SDS011;8434;47.990;7.880;2023-04-15T08:36:03;2.63;;;1.87;;
16640;SDS011;8434;47.990;7.880;2023-04-15T08:38:51;2.20;;;1.50;;
16640;SDS011;8434;47.990;7.880;2023-04-15T08:41:40;5.33;;;1.70;;
16640;SDS011;8434;47.990;7.880;2023-04-15T08:44:32;2.63;;;1.83;;
16640;SDS011;8434;47.990;7.880;2023-04-15T08:47:19;4.23;;;1.57;;
16640;SDS011;8434;47.990;7.880;2023-04-15T08:50:08;2.83;;;1.70;;
16640;SDS011;8434;47.990;7.880;2023-04-15T08:52:54;3.40;;;1.57;;
16640;SDS011;8434;47.990;7.880;2023-04-15T08:55:42;4.67;;;1.80;;
16640;SDS011;8434;47.990;7.880;2023-04-15T08:58:31;3.37;;;1.60;;
16640;SDS011;8434;47.990;7.880;2023-04-15T09:01:18;2.47;;;1.60;;
16640;SDS011;8434;47.990;7.880;2023-04-15T09:04:05;1.73;;;1.23;;
16640;SDS011;8434;47.990;7.880;2023-04-15T09:06:52;3.67;;;1.57;;
16640;SDS011;8434;47.990;7.880;2023-04-15T09:09:39;2.37;;;1.50;;
16640;SDS011;8434;47.990;7.880;2023-04-15T09:12:26;3.17;;;1.80;;
16640;SDS011;8434;47.990;7.880;2023-04-15T09:15:14;2.17;;;1.20;;
16640;SDS011;8434;47.990;7.880;2023-04-15T09:18:02;3.17;;;1.57;;
16640;SDS011;8434;47.990;7.880;2023-04-15T09:20:49;2.17;;;1.37;;
16640;SDS011;8434;47.990;7.880;2023-04-15T09:23:39;2.17;;;1.20;;
16640;SDS011;8434;47.990;7.880;2023-04-15T09:26:29;1.53;;;1.40;;
16640;SDS011;8434;47.990;7.880;2023-04-15T09:29:16;3.13;;;1.27;;
16640;SDS011;8434;47.990;7.880;2023-04-15T09:32:10;2.97;;;1.20;;
16640;SDS011;8434;47.990;7.880;2023-04-15T09:34:57;1.77;;;1.03;;
16640;SDS011;8434;47.990;7.880;2023-04-15T09:38:01;3.47;;;1.50;;
16640;SDS011;8434;47.990;7.880;2023-04-15T09:40:47;1.77;;;1.40;;
16640;SDS011;8434;47.990;7.880;2023-04-15T09:43:37;1.30;;;1.20;;
16640;SDS011;8434;47.990;7.880;2023-04-15T09:46:39;2.60;;;1.70;;
16640;SDS011;8434;47.990;7.880;2023-04-15T09:49:27;1.80;;;1.20;;
16640;SDS011;8434;47.990;7.880;2023-04-15T09:52:13;2.10;;;1.30;;
16640;SDS011;8434;47.990;7.880;2023-04-15T09:55:01;2.77;;;1.50;;
16640;SDS011;8434;47.990;7.880;2023-04-15T09:57:49;5.23;;;1.73;;
16640;SDS011;8434;47.990;7.880;2023-04-15T10:00:35;2.60;;;1.50;;
16640;SDS011;8434;47.990;7.880;2023-04-15T10:03:24;2.23;;;1.40;;
16640;SDS011;8434;47.990;7.880;2023-04-15T10:06:13;1.57;;;1.30;;
16640;SDS011;8434;47.990;7.880;2023-04-15T10:09:00;3.43;;;1.20;;
16640;SDS011;8434;47.990;7.880;2023-04-15T10:11:47;4.13;;;1.80;;
16640;SDS011;8434;47.990;7.880;2023-04-15T10:14:35;3.77;;;2.03;;
16640;SDS011;8434;47.990;7.880;2023-04-15T10:17:23;3.20;;;1.60;;
16640;SDS011;8434;47.990;7.880;2023-04-15T10:20:11;3.00;;;1.70;;
16640;SDS011;8434;47.990;7.880;2023-04-15T10:23:00;3.90;;;1.60;;
16640;SDS011;8434;47.990;7.880;2023-04-15T10:25:47;2.27;;;1.40;;
16640;SDS011;8434;47.990;7.880;2023-04-15T10:28:34;2.17;;;1.27;;
16640;SDS011;8434;47.990;7.880;2023-04-15T10:31:21;3.77;;;1.60;;
16640;SDS011;8434;47.990;7.880;2023-04-15T10:34:08;3.13;;;1.50;;
16640;SDS011;8434;47.990;7.880;2023-04-15T10:36:55;3.13;;;1.67;;
16640;SDS011;8434;47.990;7.880;2023-04-15T10:39:44;3.67;;;1.37;;
16640;SDS011;8434;47.990;7.880;2023-04-15T10:42:33;1.93;;;1.50;;
16640;SDS011;8434;47.990;7.880;2023-04-15T10:45:20;3.67;;;1.70;;
16640;SDS011;8434;47.990;7.880;2023-04-15T10:48:06;4.07;;;2.73;;
16640;SDS011;8434;47.990;7.880;2023-04-15T10:50:56;2.87;;;1.47;;
16640;SDS011;8434;47.990;7.880;2023-04-15T10:53:43;2.43;;;1.60;;
16640;SDS011;8434;47.990;7.880;2023-04-15T10:56:31;2.90;;;1.47;;
16640;SDS011;8434;47.990;7.880;2023-04-15T10:59:17;2.70;;;1.70;;
16640;SDS011;8434;47.990;7.880;2023-04-15T11:02:05;1.90;;;1.40;;
16640;SDS011;8434;47.990;7.880;2023-04-15T11:04:52;2.80;;;2.20;;
16640;SDS011;8434;47.990;7.880;2023-04-15T11:07:40;2.00;;;1.80;;
16640;SDS011;8434;47.990;7.880;2023-04-15T11:13:46;2.17;;;1.90;;
16640;SDS011;8434;47.990;7.880;2023-04-15T11:16:40;2.10;;;1.50;;
16640;SDS011;8434;47.990;7.880;2023-04-15T11:19:34;2.47;;;1.70;;
16640;SDS011;8434;47.990;7.880;2023-04-15T11:22:21;2.53;;;1.73;;
16640;SDS011;8434;47.990;7.880;2023-04-15T11:25:08;4.47;;;1.73;;
16640;SDS011;8434;47.990;7.880;2023-04-15T11:27:55;2.37;;;1.73;;
16640;SDS011;8434;47.990;7.880;2023-04-15T11:30:43;2.40;;;1.77;;
16640;SDS011;8434;47.990;7.880;2023-04-15T11:33:29;2.00;;;1.80;;
16640;SDS011;8434;47.990;7.880;2023-04-15T11:36:16;4.03;;;2.10;;
16640;SDS011;8434;47.990;7.880;2023-04-15T11:39:03;3.43;;;2.17;;
16640;SDS011;8434;47.990;7.880;2023-04-15T11:41:52;3.33;;;1.80;;
16640;SDS011;8434;47.990;7.880;2023-04-15T11:44:39;2.33;;;1.97;;
16640;SDS011;8434;47.990;7.880;2023-04-15T11:47:27;3.20;;;2.07;;
16640;SDS011;8434;47.990;7.880;2023-04-15T11:50:14;2.53;;;1.90;;
16640;SDS011;8434;47.990;7.880;2023-04-15T11:53:00;3.27;;;1.97;;
16640;SDS011;8434;47.990;7.880;2023-04-15T11:55:47;3.40;;;2.03;;
16640;SDS011;8434;47.990;7.880;2023-04-15T11:58:33;3.53;;;2.00;;
16640;SDS011;8434;47.990;7.880;2023-04-15T12:01:19;2.20;;;1.90;;
16640;SDS011;8434;47.990;7.880;2023-04-15T12:07:57;2.63;;;1.90;;
16640;SDS011;8434;47.990;7.880;2023-04-15T12:10:43;4.93;;;2.33;;
16640;SDS011;8434;47.990;7.880;2023-04-15T12:13:28;6.50;;;2.40;;
16640;SDS011;8434;47.990;7.880;2023-04-15T12:16:15;3.03;;;2.73;;
16640;SDS011;8434;47.990;7.880;2023-04-15T12:19:03;5.43;;;2.43;;
16640;SDS011;8434;47.990;7.880;2023-04-15T12:21:49;6.00;;;2.47;;
16640;SDS011;8434;47.990;7.880;2023-04-15T12:24:36;4.70;;;2.80;;
16640;SDS011;8434;47.990;7.880;2023-04-15T12:27:24;4.43;;;2.47;;
16640;SDS011;8434;47.990;7.880;2023-04-15T12:30:10;3.50;;;2.37;;
16640;SDS011;8434;47.990;7.880;2023-04-15T12:32:56;3.70;;;2.10;;
16640;SDS011;8434;47.990;7.880;2023-04-15T12:35:42;3.47;;;2.30;;
16640;SDS011;8434;47.990;7.880;2023-04-15T12:38:28;3.17;;;1.70;;
16640;SDS011;8434;47.990;7.880;2023-04-15T12:41:15;5.70;;;2.57;;
16640;SDS011;8434;47.990;7.880;2023-04-15T12:44:01;4.23;;;2.40;;
16640;SDS011;8434;47.990;7.880;2023-04-15T12:46:46;5.00;;;2.20;;
16640;SDS011;8434;47.990;7.880;2023-04-15T12:49:32;3.80;;;2.07;;
16640;SDS011;8434;47.990;7.880;2023-04-15T12:52:17;4.13;;;2.00;;
16640;SDS011;8434;47.990;7.880;2023-04-15T12:55:03;2.37;;;2.17;;
16640;SDS011;8434;47.990;7.880;2023-04-15T12:57:50;4.67;;;2.30;;
16640;SDS011;8434;47.990;7.880;2023-04-15T13:00:35;4.40;;;2.33;;
16640;SDS011;8434;47.990;7.880;2023-04-15T13:03:21;4.33;;;2.30;;
16640;SDS011;8434;47.990;7.880;2023-04-15T13:06:06;4.17;;;2.03;;
16640;SDS011;8434;47.990;7.880;2023-04-15T13:08:52;5.20;;;2.27;;
16640;SDS011;8434;47.990;7.880;2023-04-15T13:11:38;4.00;;;2.10;;
16640;SDS011;8434;47.990;7.880;2023-04-15T13:14:24;3.17;;;1.90;;
16640;SDS011;8434;47.990;7.880;2023-04-15T13:17:10;3.70;;;1.73;;
16640;SDS011;8434;47.990;7.880;2023-04-15T13:19:56;3.40;;;1.80;;
16640;SDS011;8434;47.990;7.880;2023-04-15T13:22:41;2.80;;;1.63;;
16640;SDS011;8434;47.990;7.880;2023-04-15T13:25:27;3.73;;;2.00;;
16640;SDS011;8434;47.990;7.880;2023-04-15T13:28:12;3.10;;;1.87;;
16640;SDS011;8434;47.990;7.880;2023-04-15T13:30:59;3.80;;;2.33;;
16640;SDS011;8434;47.990;7.880;2023-04-15T13:33:45;7.00;;;2.10;;
16640;SDS011;8434;47.990;7.880;2023-04-15T13:36:30;5.17;;;2.10;;
16640;SDS011;8434;47.990;7.880;2023-04-15T13:39:15;3.23;;;1.70;;
16640;SDS011;8434;47.990;7.880;2023-04-15T13:42:01;2.23;;;1.63;;
16640;SDS011;8434;47.990;7.880;2023-04-15T13:44:46;5.23;;;1.50;;
16640;SDS011;8434;47.990;7.880;2023-04-15T13:47:33;5.80;;;2.37;;
16640;SDS011;8434;47.990;7.880;2023-04-15T13:50:19;3.10;;;1.53;;
16640;SDS011;8434;47.990;7.880;2023-04-15T13:53:04;3.37;;;1.67;;
16640;SDS011;8434;47.990;7.880;2023-04-15T13:55:50;3.00;;;1.70;;
16640;SDS011;8434;47.990;7.880;2023-04-15T13:58:35;3.33;;;1.50;;
16640;SDS011;8434;47.990;7.880;2023-04-15T14:01:21;2.50;;;1.43;;
16640;SDS011;8434;47.990;7.880;2023-04-15T14:04:07;3.43;;;2.20;;
16640;SDS011;8434;47.990;7.880;2023-04-15T14:06:53;3.77;;;2.00;;
16640;SDS011;8434;47.990;7.880;2023-04-15T14:09:39;4.27;;;2.00;;
16640;SDS011;8434;47.990;7.880;2023-04-15T14:12:24;3.27;;;1.97;;
16640;SDS011;8434;47.990;7.880;2023-04-15T14:15:09;2.83;;;1.77;;
16640;SDS011;8434;47.990;7.880;2023-04-15T14:17:54;3.33;;;1.90;;
16640;SDS011;8434;47.990;7.880;2023-04-15T14:20:41;3.60;;;2.37;;
16640;SDS011;8434;47.990;7.880;2023-04-15T14:23:27;2.93;;;1.97;;
16640;SDS011;8434;47.990;7.880;2023-04-15T14:26:12;5.37;;;2.30;;
16640;SDS011;8434;47.990;7.880;2023-04-15T14:28:58;3.47;;;1.80;;
16640;SDS011;8434;47.990;7.880;2023-04-15T14:31:43;4.00;;;2.10;;
16640;SDS011;8434;47.990;7.880;2023-04-15T14:34:28;3.13;;;2.27;;
16640;SDS011;8434;47.990;7.880;2023-04-15T14:37:15;3.30;;;2.07;;
16640;SDS011;8434;47.990;7.880;2023-04-15T14:40:00;4.77;;;2.33;;
16640;SDS011;8434;47.990;7.880;2023-04-15T14:42:46;4.20;;;2.17;;
16640;SDS011;8434;47.990;7.880;2023-04-15T14:45:31;6.30;;;2.30;;
16640;SDS011;8434;47.990;7.880;2023-04-15T14:48:17;4.13;;;1.97;;
16640;SDS011;8434;47.990;7.880;2023-04-15T14:51:02;4.43;;;1.87;;
16640;SDS011;8434;47.990;7.880;2023-04-15T14:53:49;3.77;;;1.93;;
16640;SDS011;8434;47.990;7.880;2023-04-15T14:56:35;3.93;;;2.17;;
16640;SDS011;8434;47.990;7.880;2023-04-15T14:59:20;5.53;;;2.13;;
16640;SDS011;8434;47.990;7.880;2023-04-15T15:02:06;3.60;;;1.90;;
16640;SDS011;8434;47.990;7.880;2023-04-15T15:04:51;2.40;;;1.77;;
16640;SDS011;8434;47.990;7.880;2023-04-15T15:07:38;2.30;;;1.50;;
16640;SDS011;8434;47.990;7.880;2023-04-15T15:10:25;3.20;;;1.73;;
16640;SDS011;8434;47.990;7.880;2023-04-15T15:13:10;2.70;;;1.30;;
16640;SDS011;8434;47.990;7.880;2023-04-15T15:15:56;2.80;;;1.20;;
16640;SDS011;8434;47.990;7.880;2023-04-15T15:18:41;1.33;;;1.13;;
16640;SDS011;8434;47.990;7.880;2023-04-15T15:21:27;3.37;;;1.40;;
16640;SDS011;8434;47.990;7.880;2023-04-15T15:24:12;3.57;;;1.63;;
16640;SDS011;8434;47.990;7.880;2023-04-15T15:26:59;2.00;;;1.33;;
16640;SDS011;8434;47.990;7.880;2023-04-15T15:29:45;3.90;;;1.67;;
16640;SDS011;8434;47.990;7.880;2023-04-15T15:32:30;2.10;;;1.60;;
16640;SDS011;8434;47.990;7.880;2023-04-15T15:35:16;2.13;;;1.57;;
16640;SDS011;8434;47.990;7.880;2023-04-15T15:38:01;2.77;;;1.60;;
16640;SDS011;8434;47.990;7.880;2023-04-15T15:40:47;3.83;;;1.80;;
16640;SDS011;8434;47.990;7.880;2023-04-15T15:43:34;2.17;;;1.57;;
16640;SDS011;8434;47.990;7.880;2023-04-15T15:46:19;3.33;;;1.77;;
16640;SDS011;8434;47.990;7.880;2023-04-15T15:49:06;3.27;;;1.50;;
16640;SDS011;8434;47.990;7.880;2023-04-15T15:51:52;3.37;;;1.83;;
16640;SDS011;8434;47.990;7.880;2023-04-15T15:54:38;2.33;;;1.33;;
16640;SDS011;8434;47.990;7.880;2023-04-15T15:57:23;2.73;;;1.70;;
16640;SDS011;8434;47.990;7.880;2023-04-15T16:00:10;2.83;;;1.60;;
16640;SDS011;8434;47.990;7.880;2023-04-15T16:02:57;3.80;;;2.00;;
16640;SDS011;8434;47.990;7.880;2023-04-15T16:05:42;4.87;;;2.10;;
16640;SDS011;8434;47.990;7.880;2023-04-15T16:08:27;2.20;;;1.47;;
16640;SDS011;8434;47.990;7.880;2023-04-15T16:11:13;2.37;;;1.50;;
16640;SDS011;8434;47.990;7.880;2023-04-15T16:13:58;3.10;;;1.50;;
16640;SDS011;8434;47.990;7.880;2023-04-15T16:16:45;1.63;;;1.37;;
16640;SDS011;8434;47.990;7.880;2023-04-15T16:19:34;4.13;;;1.60;;
16640;SDS011;8434;47.990;7.880;2023-04-15T16:22:19;2.43;;;1.57;;
16640;SDS011;8434;47.990;7.880;2023-04-15T16:25:05;4.10;;;1.60;;
16640;SDS011;8434;47.990;7.880;2023-04-15T16:27:50;3.00;;;1.60;;
16640;SDS011;8434;47.990;7.880;2023-04-15T16:30:36;4.43;;;1.83;;
16640;SDS011;8434;47.990;7.880;2023-04-15T16:33:23;3.07;;;1.70;;
16640;SDS011;8434;47.990;7.880;2023-04-15T16:36:08;1.67;;;1.40;;
16640;SDS011;8434;47.990;7.880;2023-04-15T16:38:54;3.63;;;1.77;;
16640;SDS011;8434;47.990;7.880;2023-04-15T16:41:39;5.17;;;1.43;;
16640;SDS011;8434;47.990;7.880;2023-04-15T16:44:25;3.97;;;1.33;;
16640;SDS011;8434;47.990;7.880;2023-04-15T16:47:11;3.37;;;1.50;;
16640;SDS011;8434;47.990;7.880;2023-04-15T16:49:58;4.73;;;1.60;;
16640;SDS011;8434;47.990;7.880;2023-04-15T16:52:43;2.40;;;1.33;;
16640;SDS011;8434;47.990;7.880;2023-04-15T16:55:28;3.43;;;1.60;;
16640;SDS011;8434;47.990;7.880;2023-04-15T16:58:14;2.77;;;1.63;;
16640;SDS011;8434;47.990;7.880;2023-04-15T17:00:59;1.90;;;1.23;;
16640;SDS011;8434;47.990;7.880;2023-04-15T17:03:45;3.90;;;1.60;;
16640;SDS011;8434;47.990;7.880;2023-04-15T17:06:32;3.20;;;1.60;;